sensor_id;sensor_type;location;lat;lon;timestamp;temperature;humidity
37956;DHT22;23776;51.592;7.180;2023-05-27T00:01:20;12.20;99.90
37956;DHT22;23776;51.592;7.180;2023-05-27T00:03:46;12.20;1.00
37956;DHT22;23776;51.592;7.180;2023-05-27T00:06:12;12.10;99.90
37956;DHT22;23776;51.592;7.180;2023-05-27T00:08:37;12.00;1.00
37956;DHT22;23776;51.592;7.180;2023-05-27T00:11:03;12.40;1.00
37956;DHT22;23776;51.592;7.180;2023-05-27T00:13:29;11.90;99.90
37956;DHT22;23776;51.592;7.180;2023-05-27T00:15:54;13.20;99.90
37956;DHT22;23776;51.592;7.180;2023-05-27T00:18:20;11.90;1.00
37956;DHT22;23776;51.592;7.180;2023-05-27T00:20:46;12.00;99.90
37956;DHT22;23776;51.592;7.180;2023-05-27T00:23:13;11.80;99.90
37956;DHT22;23776;51.592;7.180;2023-05-27T00:25:39;11.70;99.90
37956;DHT22;23776;51.592;7.180;2023-05-27T00:28:04;12.90;1.00
37956;DHT22;23776;51.592;7.180;2023-05-27T00:30:30;11.70;1.00
37956;DHT22;23776;51.592;7.180;2023-05-27T00:32:56;11.80;1.00
37956;DHT22;23776;51.592;7.180;2023-05-27T00:35:21;11.70;99.90
37956;DHT22;23776;51.592;7.180;2023-05-27T00:37:47;11.70;99.90
37956;DHT22;23776;51.592;7.180;2023-05-27T00:40:14;11.60;99.90
37956;DHT22;23776;51.592;7.180;2023-05-27T00:42:40;11.60;99.90
37956;DHT22;23776;51.592;7.180;2023-05-27T00:45:07;11.60;1.00
37956;DHT22;23776;51.592;7.180;2023-05-27T00:47:33;11.50;99.90
37956;DHT22;23776;51.592;7.180;2023-05-27T00:49:59;11.40;99.90
37956;DHT22;23776;51.592;7.180;2023-05-27T00:52:25;11.40;99.90
37956;DHT22;23776;51.592;7.180;2023-05-27T00:54:52;11.40;1.00
37956;DHT22;23776;51.592;7.180;2023-05-27T00:57:19;11.50;99.90
37956;DHT22;23776;51.592;7.180;2023-05-27T00:59:45;11.50;1.00
37956;DHT22;23776;51.592;7.180;2023-05-27T01:02:10;11.50;21.10
37956;DHT22;23776;51.592;7.180;2023-05-27T01:04:36;11.50;1.00
37956;DHT22;23776;51.592;7.180;2023-05-27T01:07:08;11.40;1.00
37956;DHT22;23776;51.592;7.180;2023-05-27T01:10:02;11.40;99.90
37956;DHT22;23776;51.592;7.180;2023-05-27T01:12:53;11.40;1.00
37956;DHT22;23776;51.592;7.180;2023-05-27T01:15:20;11.30;1.00
37956;DHT22;23776;51.592;7.180;2023-05-27T01:17:47;11.30;1.00
37956;DHT22;23776;51.592;7.180;2023-05-27T01:20:16;11.40;1.00
37956;DHT22;23776;51.592;7.180;2023-05-27T01:22:44;12.30;99.90
37956;DHT22;23776;51.592;7.180;2023-05-27T01:25:10;11.20;1.00
37956;DHT22;23776;51.592;7.180;2023-05-27T01:27:35;11.10;99.90
37956;DHT22;23776;51.592;7.180;2023-05-27T01:30:02;11.00;99.90
37956;DHT22;23776;51.592;7.180;2023-05-27T01:32:32;11.10;99.90
37956;DHT22;23776;51.592;7.180;2023-05-27T01:35:20;11.00;99.90
37956;DHT22;23776;51.592;7.180;2023-05-27T01:37:48;10.90;45.30
37956;DHT22;23776;51.592;7.180;2023-05-27T01:40:15;11.00;99.90
37956;DHT22;23776;51.592;7.180;2023-05-27T01:42:42;11.00;99.90
37956;DHT22;23776;51.592;7.180;2023-05-27T01:45:09;11.00;99.90
37956;DHT22;23776;51.592;7.180;2023-05-27T01:47:35;10.90;1.00
37956;DHT22;23776;51.592;7.180;2023-05-27T01:50:01;10.80;15.50
37956;DHT22;23776;51.592;7.180;2023-05-27T01:52:27;10.50;1.00
37956;DHT22;23776;51.592;7.180;2023-05-27T01:54:53;10.80;99.90
37956;DHT22;23776;51.592;7.180;2023-05-27T01:57:19;10.70;92.30
37956;DHT22;23776;51.592;7.180;2023-05-27T01:59:45;10.70;1.00
37956;DHT22;23776;51.592;7.180;2023-05-27T02:02:11;10.70;90.30
37956;DHT22;23776;51.592;7.180;2023-05-27T02:04:36;10.60;1.00
37956;DHT22;23776;51.592;7.180;2023-05-27T02:07:02;10.60;1.00
37956;DHT22;23776;51.592;7.180;2023-05-27T02:09:28;10.50;1.00
37956;DHT22;23776;51.592;7.180;2023-05-27T02:11:54;10.50;1.00
37956;DHT22;23776;51.592;7.180;2023-05-27T02:14:19;10.50;1.00
37956;DHT22;23776;51.592;7.180;2023-05-27T02:16:45;10.50;1.00
37956;DHT22;23776;51.592;7.180;2023-05-27T02:19:11;10.60;99.90
37956;DHT22;23776;51.592;7.180;2023-05-27T02:21:36;10.40;99.90
37956;DHT22;23776;51.592;7.180;2023-05-27T02:24:02;10.20;99.90
37956;DHT22;23776;51.592;7.180;2023-05-27T02:26:28;10.20;99.90
37956;DHT22;23776;51.592;7.180;2023-05-27T02:28:54;10.20;10.90
37956;DHT22;23776;51.592;7.180;2023-05-27T02:31:21;10.20;1.00
37956;DHT22;23776;51.592;7.180;2023-05-27T02:33:47;10.10;1.00
37956;DHT22;23776;51.592;7.180;2023-05-27T02:36:12;10.10;99.90
37956;DHT22;23776;51.592;7.180;2023-05-27T02:38:38;10.10;99.90
37956;DHT22;23776;51.592;7.180;2023-05-27T02:41:04;10.10;99.90
37956;DHT22;23776;51.592;7.180;2023-05-27T02:43:30;10.00;99.90
37956;DHT22;23776;51.592;7.180;2023-05-27T02:45:56;10.20;1.00
37956;DHT22;23776;51.592;7.180;2023-05-27T02:48:21;12.30;99.90
37956;DHT22;23776;51.592;7.180;2023-05-27T02:50:47;10.00;99.90
37956;DHT22;23776;51.592;7.180;2023-05-27T02:53:12;10.00;99.90
37956;DHT22;23776;51.592;7.180;2023-05-27T02:55:38;9.90;99.90
37956;DHT22;23776;51.592;7.180;2023-05-27T02:58:03;9.90;99.90
37956;DHT22;23776;51.592;7.180;2023-05-27T03:00:30;9.90;10.40
37956;DHT22;23776;51.592;7.180;2023-05-27T03:02:56;10.00;52.50
37956;DHT22;23776;51.592;7.180;2023-05-27T03:05:22;13.10;2.00
37956;DHT22;23776;51.592;7.180;2023-05-27T03:07:47;9.90;1.00
37956;DHT22;23776;51.592;7.180;2023-05-27T03:10:13;12.00;52.40
37956;DHT22;23776;51.592;7.180;2023-05-27T03:12:39;9.90;1.00
37956;DHT22;23776;51.592;7.180;2023-05-27T03:15:05;9.80;1.00
37956;DHT22;23776;51.592;7.180;2023-05-27T03:17:30;9.80;1.00
37956;DHT22;23776;51.592;7.180;2023-05-27T03:19:56;9.70;1.00
37956;DHT22;23776;51.592;7.180;2023-05-27T03:22:22;9.80;99.90
37956;DHT22;23776;51.592;7.180;2023-05-27T03:24:48;9.70;96.90
37956;DHT22;23776;51.592;7.180;2023-05-27T03:27:13;9.60;1.00
37956;DHT22;23776;51.592;7.180;2023-05-27T03:29:40;9.60;1.00
37956;DHT22;23776;51.592;7.180;2023-05-27T03:32:06;9.50;24.90
37956;DHT22;23776;51.592;7.180;2023-05-27T03:34:32;9.60;99.90
37956;DHT22;23776;51.592;7.180;2023-05-27T03:36:57;9.60;99.90
37956;DHT22;23776;51.592;7.180;2023-05-27T03:39:23;9.60;67.70
37956;DHT22;23776;51.592;7.180;2023-05-27T03:41:48;9.50;99.90
37956;DHT22;23776;51.592;7.180;2023-05-27T03:44:14;9.50;99.90
37956;DHT22;23776;51.592;7.180;2023-05-27T03:46:40;9.50;99.90
37956;DHT22;23776;51.592;7.180;2023-05-27T03:49:05;9.40;99.90
37956;DHT22;23776;51.592;7.180;2023-05-27T03:51:31;9.40;99.90
37956;DHT22;23776;51.592;7.180;2023-05-27T03:53:57;9.40;99.90
37956;DHT22;23776;51.592;7.180;2023-05-27T03:56:22;9.40;99.90
37956;DHT22;23776;51.592;7.180;2023-05-27T03:58:49;9.40;99.90
37956;DHT22;23776;51.592;7.180;2023-05-27T04:01:15;9.50;99.90
37956;DHT22;23776;51.592;7.180;2023-05-27T04:03:42;9.60;1.00
37956;DHT22;23776;51.592;7.180;2023-05-27T04:06:09;9.50;99.90
37956;DHT22;23776;51.592;7.180;2023-05-27T04:08:35;9.40;99.90
37956;DHT22;23776;51.592;7.180;2023-05-27T04:11:01;9.40;99.90
37956;DHT22;23776;51.592;7.180;2023-05-27T04:13:26;9.40;1.00
37956;DHT22;23776;51.592;7.180;2023-05-27T04:15:52;9.50;1.00
37956;DHT22;23776;51.592;7.180;2023-05-27T04:18:19;9.60;1.00
37956;DHT22;23776;51.592;7.180;2023-05-27T04:20:45;9.50;99.90
37956;DHT22;23776;51.592;7.180;2023-05-27T04:23:12;11.00;1.00
37956;DHT22;23776;51.592;7.180;2023-05-27T04:25:39;12.50;1.00
37956;DHT22;23776;51.592;7.180;2023-05-27T04:28:05;9.60;99.90
37956;DHT22;23776;51.592;7.180;2023-05-27T04:30:31;9.50;99.90
37956;DHT22;23776;51.592;7.180;2023-05-27T04:32:56;9.60;99.90
37956;DHT22;23776;51.592;7.180;2023-05-27T04:35:23;9.60;99.90
37956;DHT22;23776;51.592;7.180;2023-05-27T04:37:49;9.60;99.90
37956;DHT22;23776;51.592;7.180;2023-05-27T04:40:15;9.70;99.90
37956;DHT22;23776;51.592;7.180;2023-05-27T04:42:40;7.50;99.90
37956;DHT22;23776;51.592;7.180;2023-05-27T04:45:09;9.80;99.90
37956;DHT22;23776;51.592;7.180;2023-05-27T04:47:36;9.80;99.90
37956;DHT22;23776;51.592;7.180;2023-05-27T04:50:03;10.00;99.90
37956;DHT22;23776;51.592;7.180;2023-05-27T04:52:29;10.00;99.90
37956;DHT22;23776;51.592;7.180;2023-05-27T04:54:55;10.50;99.90
37956;DHT22;23776;51.592;7.180;2023-05-27T04:57:21;10.00;99.90
37956;DHT22;23776;51.592;7.180;2023-05-27T04:59:47;10.00;99.90
37956;DHT22;23776;51.592;7.180;2023-05-27T05:02:33;10.00;99.90
37956;DHT22;23776;51.592;7.180;2023-05-27T05:05:09;10.00;99.90
37956;DHT22;23776;51.592;7.180;2023-05-27T05:07:39;10.00;99.90
37956;DHT22;23776;51.592;7.180;2023-05-27T05:10:10;10.20;99.90
37956;DHT22;23776;51.592;7.180;2023-05-27T05:12:36;10.20;99.90
37956;DHT22;23776;51.592;7.180;2023-05-27T05:15:03;10.30;99.90
37956;DHT22;23776;51.592;7.180;2023-05-27T05:17:29;10.30;99.90
37956;DHT22;23776;51.592;7.180;2023-05-27T05:19:55;11.60;99.90
37956;DHT22;23776;51.592;7.180;2023-05-27T05:22:21;10.30;99.90
37956;DHT22;23776;51.592;7.180;2023-05-27T05:24:51;10.30;96.80
37956;DHT22;23776;51.592;7.180;2023-05-27T05:27:17;10.40;99.90
37956;DHT22;23776;51.592;7.180;2023-05-27T05:29:42;10.40;38.50
37956;DHT22;23776;51.592;7.180;2023-05-27T05:32:09;10.50;17.40
37956;DHT22;23776;51.592;7.180;2023-05-27T05:34:39;10.60;99.90
37956;DHT22;23776;51.592;7.180;2023-05-27T05:37:05;10.60;22.30
37956;DHT22;23776;51.592;7.180;2023-05-27T05:39:32;10.80;46.10
37956;DHT22;23776;51.592;7.180;2023-05-27T05:41:58;10.70;1.00
37956;DHT22;23776;51.592;7.180;2023-05-27T05:44:24;10.60;1.00
37956;DHT22;23776;51.592;7.180;2023-05-27T05:46:50;12.10;1.00
37956;DHT22;23776;51.592;7.180;2023-05-27T05:49:15;10.70;1.00
37956;DHT22;23776;51.592;7.180;2023-05-27T05:51:41;10.60;99.90
37956;DHT22;23776;51.592;7.180;2023-05-27T05:54:07;10.70;99.90
37956;DHT22;23776;51.592;7.180;2023-05-27T05:56:33;10.80;1.00
37956;DHT22;23776;51.592;7.180;2023-05-27T05:58:59;10.90;1.00
37956;DHT22;23776;51.592;7.180;2023-05-27T06:01:25;11.00;1.00
37956;DHT22;23776;51.592;7.180;2023-05-27T06:03:52;11.10;1.00
37956;DHT22;23776;51.592;7.180;2023-05-27T06:06:18;11.30;99.90
37956;DHT22;23776;51.592;7.180;2023-05-27T06:08:44;11.30;99.90
37956;DHT22;23776;51.592;7.180;2023-05-27T06:11:10;11.40;99.90
37956;DHT22;23776;51.592;7.180;2023-05-27T06:13:36;11.50;99.90
37956;DHT22;23776;51.592;7.180;2023-05-27T06:16:02;11.60;3.20
37956;DHT22;23776;51.592;7.180;2023-05-27T06:18:27;11.60;99.90
37956;DHT22;23776;51.592;7.180;2023-05-27T06:20:53;12.20;99.90
37956;DHT22;23776;51.592;7.180;2023-05-27T06:23:18;11.70;99.90
37956;DHT22;23776;51.592;7.180;2023-05-27T06:25:44;11.80;75.90
37956;DHT22;23776;51.592;7.180;2023-05-27T06:28:10;11.80;99.90
37956;DHT22;23776;51.592;7.180;2023-05-27T06:30:36;11.80;99.90
37956;DHT22;23776;51.592;7.180;2023-05-27T06:33:02;11.90;99.90
37956;DHT22;23776;51.592;7.180;2023-05-27T06:35:28;12.00;1.00
37956;DHT22;23776;51.592;7.180;2023-05-27T06:37:54;12.00;1.00
37956;DHT22;23776;51.592;7.180;2023-05-27T06:40:19;12.10;99.90
37956;DHT22;23776;51.592;7.180;2023-05-27T06:42:45;12.10;99.90
37956;DHT22;23776;51.592;7.180;2023-05-27T06:45:11;12.20;11.40
37956;DHT22;23776;51.592;7.180;2023-05-27T06:47:37;12.20;1.00
37956;DHT22;23776;51.592;7.180;2023-05-27T06:50:03;12.30;1.00
37956;DHT22;23776;51.592;7.180;2023-05-27T06:52:28;12.40;1.00
37956;DHT22;23776;51.592;7.180;2023-05-27T06:54:54;12.50;67.10
37956;DHT22;23776;51.592;7.180;2023-05-27T06:57:20;12.50;1.00
37956;DHT22;23776;51.592;7.180;2023-05-27T06:59:45;12.60;1.00
37956;DHT22;23776;51.592;7.180;2023-05-27T07:02:11;12.70;99.90
37956;DHT22;23776;51.592;7.180;2023-05-27T07:04:36;13.70;99.90
37956;DHT22;23776;51.592;7.180;2023-05-27T07:07:03;12.80;99.90
37956;DHT22;23776;51.592;7.180;2023-05-27T07:09:28;13.00;99.90
37956;DHT22;23776;51.592;7.180;2023-05-27T07:11:54;13.00;88.90
37956;DHT22;23776;51.592;7.180;2023-05-27T07:14:20;13.10;1.00
37956;DHT22;23776;51.592;7.180;2023-05-27T07:16:45;13.10;99.90
37956;DHT22;23776;51.592;7.180;2023-05-27T07:19:11;13.30;99.90
37956;DHT22;23776;51.592;7.180;2023-05-27T07:21:37;13.30;99.90
37956;DHT22;23776;51.592;7.180;2023-05-27T07:24:03;13.40;99.90
37956;DHT22;23776;51.592;7.180;2023-05-27T07:26:30;13.40;1.00
37956;DHT22;23776;51.592;7.180;2023-05-27T07:28:57;13.50;1.00
37956;DHT22;23776;51.592;7.180;2023-05-27T07:31:24;13.60;1.00
37956;DHT22;23776;51.592;7.180;2023-05-27T07:33:50;13.70;1.00
37956;DHT22;23776;51.592;7.180;2023-05-27T07:36:15;13.70;99.90
37956;DHT22;23776;51.592;7.180;2023-05-27T07:38:41;13.70;99.90
37956;DHT22;23776;51.592;7.180;2023-05-27T07:41:06;13.80;99.90
37956;DHT22;23776;51.592;7.180;2023-05-27T07:43:32;13.90;99.90
37956;DHT22;23776;51.592;7.180;2023-05-27T07:45:57;14.00;1.00
37956;DHT22;23776;51.592;7.180;2023-05-27T07:48:23;14.10;1.00
37956;DHT22;23776;51.592;7.180;2023-05-27T07:50:49;14.10;1.00
37956;DHT22;23776;51.592;7.180;2023-05-27T07:53:14;14.20;1.00
37956;DHT22;23776;51.592;7.180;2023-05-27T07:55:40;14.30;1.00
37956;DHT22;23776;51.592;7.180;2023-05-27T07:58:05;14.40;99.90
37956;DHT22;23776;51.592;7.180;2023-05-27T08:00:31;14.50;99.90
37956;DHT22;23776;51.592;7.180;2023-05-27T08:02:57;14.60;99.90
37956;DHT22;23776;51.592;7.180;2023-05-27T08:05:23;14.80;75.60
37956;DHT22;23776;51.592;7.180;2023-05-27T08:07:48;14.70;60.40
37956;DHT22;23776;51.592;7.180;2023-05-27T08:10:14;14.90;1.00
37956;DHT22;23776;51.592;7.180;2023-05-27T08:12:39;15.00;1.00
37956;DHT22;23776;51.592;7.180;2023-05-27T08:15:05;15.10;1.00
37956;DHT22;23776;51.592;7.180;2023-05-27T08:17:31;15.10;1.00
37956;DHT22;23776;51.592;7.180;2023-05-27T08:19:57;15.20;1.00
37956;DHT22;23776;51.592;7.180;2023-05-27T08:22:22;15.30;99.90
37956;DHT22;23776;51.592;7.180;2023-05-27T08:24:48;15.40;99.90
37956;DHT22;23776;51.592;7.180;2023-05-27T08:27:15;15.50;99.90
37956;DHT22;23776;51.592;7.180;2023-05-27T08:29:42;15.60;99.90
37956;DHT22;23776;51.592;7.180;2023-05-27T08:32:07;15.80;99.90
37956;DHT22;23776;51.592;7.180;2023-05-27T08:34:33;15.90;99.90
37956;DHT22;23776;51.592;7.180;2023-05-27T08:36:59;16.00;34.00
37956;DHT22;23776;51.592;7.180;2023-05-27T08:39:25;16.10;23.10
37956;DHT22;23776;51.592;7.180;2023-05-27T08:41:52;16.10;1.00
37956;DHT22;23776;51.592;7.180;2023-05-27T08:44:21;16.20;1.00
37956;DHT22;23776;51.592;7.180;2023-05-27T08:46:48;16.30;1.00
37956;DHT22;23776;51.592;7.180;2023-05-27T08:49:14;16.40;1.00
37956;DHT22;23776;51.592;7.180;2023-05-27T08:51:40;16.50;1.00
37956;DHT22;23776;51.592;7.180;2023-05-27T08:54:08;16.50;99.90
37956;DHT22;23776;51.592;7.180;2023-05-27T08:56:35;16.60;99.90
37956;DHT22;23776;51.592;7.180;2023-05-27T08:59:02;16.60;99.90
37956;DHT22;23776;51.592;7.180;2023-05-27T09:01:28;16.70;99.90
37956;DHT22;23776;51.592;7.180;2023-05-27T09:03:55;16.80;99.90
37956;DHT22;23776;51.592;7.180;2023-05-27T09:06:21;16.90;99.90
37956;DHT22;23776;51.592;7.180;2023-05-27T09:08:46;17.00;99.90
37956;DHT22;23776;51.592;7.180;2023-05-27T09:11:22;17.10;99.90
37956;DHT22;23776;51.592;7.180;2023-05-27T09:13:48;17.20;99.90
37956;DHT22;23776;51.592;7.180;2023-05-27T09:16:14;17.40;99.90
37956;DHT22;23776;51.592;7.180;2023-05-27T09:18:41;17.40;99.90
37956;DHT22;23776;51.592;7.180;2023-05-27T09:21:07;17.50;99.90
37956;DHT22;23776;51.592;7.180;2023-05-27T09:23:37;17.60;99.90
37956;DHT22;23776;51.592;7.180;2023-05-27T09:26:08;17.70;99.90
37956;DHT22;23776;51.592;7.180;2023-05-27T09:28:35;17.80;99.90
37956;DHT22;23776;51.592;7.180;2023-05-27T09:31:06;17.90;99.90
37956;DHT22;23776;51.592;7.180;2023-05-27T09:33:34;18.00;99.90
37956;DHT22;23776;51.592;7.180;2023-05-27T09:36:01;18.10;98.10
37956;DHT22;23776;51.592;7.180;2023-05-27T09:38:34;18.20;54.20
37956;DHT22;23776;51.592;7.180;2023-05-27T09:41:00;18.40;59.20
37956;DHT22;23776;51.592;7.180;2023-05-27T09:43:27;18.50;1.00
37956;DHT22;23776;51.592;7.180;2023-05-27T09:46:01;18.50;1.00
37956;DHT22;23776;51.592;7.180;2023-05-27T09:48:29;18.70;1.00
37956;DHT22;23776;51.592;7.180;2023-05-27T09:50:56;18.60;1.00
37956;DHT22;23776;51.592;7.180;2023-05-27T09:53:24;18.80;1.00
37956;DHT22;23776;51.592;7.180;2023-05-27T09:55:52;18.90;1.00
37956;DHT22;23776;51.592;7.180;2023-05-27T09:58:18;19.00;1.00
37956;DHT22;23776;51.592;7.180;2023-05-27T10:00:45;19.10;1.00
37956;DHT22;23776;51.592;7.180;2023-05-27T10:03:13;19.20;1.00
37956;DHT22;23776;51.592;7.180;2023-05-27T10:05:42;19.30;1.00
37956;DHT22;23776;51.592;7.180;2023-05-27T10:08:08;19.40;1.00
37956;DHT22;23776;51.592;7.180;2023-05-27T10:10:34;19.50;99.90
37956;DHT22;23776;51.592;7.180;2023-05-27T10:13:00;19.60;99.90
37956;DHT22;23776;51.592;7.180;2023-05-27T10:15:27;19.80;99.90
37956;DHT22;23776;51.592;7.180;2023-05-27T10:17:55;19.80;99.90
37956;DHT22;23776;51.592;7.180;2023-05-27T10:20:26;19.80;99.90
37956;DHT22;23776;51.592;7.180;2023-05-27T10:22:52;19.90;99.90
37956;DHT22;23776;51.592;7.180;2023-05-27T10:25:18;20.20;99.90
37956;DHT22;23776;51.592;7.180;2023-05-27T10:27:45;20.20;99.90
37956;DHT22;23776;51.592;7.180;2023-05-27T10:30:14;20.30;99.90
37956;DHT22;23776;51.592;7.180;2023-05-27T10:32:58;20.40;99.90
37956;DHT22;23776;51.592;7.180;2023-05-27T10:35:27;20.50;99.90
37956;DHT22;23776;51.592;7.180;2023-05-27T10:37:53;20.50;99.90
37956;DHT22;23776;51.592;7.180;2023-05-27T10:40:25;20.70;99.90
37956;DHT22;23776;51.592;7.180;2023-05-27T10:43:00;20.80;99.90
37956;DHT22;23776;51.592;7.180;2023-05-27T10:45:33;21.00;99.90
37956;DHT22;23776;51.592;7.180;2023-05-27T10:47:59;21.00;99.90
37956;DHT22;23776;51.592;7.180;2023-05-27T10:50:31;21.20;99.90
37956;DHT22;23776;51.592;7.180;2023-05-27T10:52:59;21.30;99.90
37956;DHT22;23776;51.592;7.180;2023-05-27T10:55:26;21.50;99.90
37956;DHT22;23776;51.592;7.180;2023-05-27T10:57:52;21.50;99.90
37956;DHT22;23776;51.592;7.180;2023-05-27T11:00:19;21.60;99.90
37956;DHT22;23776;51.592;7.180;2023-05-27T11:02:46;21.80;99.90
37956;DHT22;23776;51.592;7.180;2023-05-27T11:05:14;21.90;99.90
37956;DHT22;23776;51.592;7.180;2023-05-27T11:07:40;22.00;99.90
37956;DHT22;23776;51.592;7.180;2023-05-27T11:10:08;22.20;99.90
37956;DHT22;23776;51.592;7.180;2023-05-27T11:12:34;22.20;99.90
37956;DHT22;23776;51.592;7.180;2023-05-27T11:15:00;22.20;99.90
37956;DHT22;23776;51.592;7.180;2023-05-27T11:17:25;22.20;99.90
37956;DHT22;23776;51.592;7.180;2023-05-27T11:19:51;22.40;99.90
37956;DHT22;23776;51.592;7.180;2023-05-27T11:22:17;22.60;99.90
37956;DHT22;23776;51.592;7.180;2023-05-27T11:25:02;22.60;99.90
37956;DHT22;23776;51.592;7.180;2023-05-27T11:27:38;22.70;99.90
37956;DHT22;23776;51.592;7.180;2023-05-27T11:30:09;22.80;99.90
37956;DHT22;23776;51.592;7.180;2023-05-27T11:32:35;22.90;99.90
37956;DHT22;23776;51.592;7.180;2023-05-27T11:35:01;23.00;99.90
37956;DHT22;23776;51.592;7.180;2023-05-27T11:37:32;23.10;99.90
37956;DHT22;23776;51.592;7.180;2023-05-27T11:39:58;23.20;99.90
37956;DHT22;23776;51.592;7.180;2023-05-27T11:42:24;23.30;99.90
37956;DHT22;23776;51.592;7.180;2023-05-27T11:44:51;23.30;99.90
37956;DHT22;23776;51.592;7.180;2023-05-27T11:47:17;23.30;99.90
37956;DHT22;23776;51.592;7.180;2023-05-27T11:49:43;23.40;99.90
37956;DHT22;23776;51.592;7.180;2023-05-27T11:52:10;23.60;99.90
37956;DHT22;23776;51.592;7.180;2023-05-27T11:54:37;23.80;99.90
37956;DHT22;23776;51.592;7.180;2023-05-27T11:57:03;23.90;99.90
37956;DHT22;23776;51.592;7.180;2023-05-27T11:59:33;24.20;99.90
37956;DHT22;23776;51.592;7.180;2023-05-27T12:01:58;24.30;99.90
37956;DHT22;23776;51.592;7.180;2023-05-27T12:06:50;24.50;99.90
37956;DHT22;23776;51.592;7.180;2023-05-27T12:09:16;24.60;99.90
37956;DHT22;23776;51.592;7.180;2023-05-27T12:11:41;24.80;99.90
37956;DHT22;23776;51.592;7.180;2023-05-27T12:14:07;25.00;99.90
37956;DHT22;23776;51.592;7.180;2023-05-27T12:16:33;25.20;99.90
37956;DHT22;23776;51.592;7.180;2023-05-27T12:18:59;25.40;99.90
37956;DHT22;23776;51.592;7.180;2023-05-27T12:21:25;25.60;99.90
37956;DHT22;23776;51.592;7.180;2023-05-27T12:23:50;25.70;99.90
37956;DHT22;23776;51.592;7.180;2023-05-27T12:26:18;26.20;99.90
37956;DHT22;23776;51.592;7.180;2023-05-27T12:28:44;25.90;99.90
37956;DHT22;23776;51.592;7.180;2023-05-27T12:31:10;26.90;99.90
37956;DHT22;23776;51.592;7.180;2023-05-27T12:33:36;27.70;99.90
37956;DHT22;23776;51.592;7.180;2023-05-27T12:36:02;28.50;99.90
37956;DHT22;23776;51.592;7.180;2023-05-27T12:38:30;29.30;99.90
37956;DHT22;23776;51.592;7.180;2023-05-27T12:40:55;30.00;99.90
37956;DHT22;23776;51.592;7.180;2023-05-27T12:43:22;30.70;99.90
37956;DHT22;23776;51.592;7.180;2023-05-27T12:45:48;30.90;99.00
37956;DHT22;23776;51.592;7.180;2023-05-27T12:48:14;31.00;98.40
37956;DHT22;23776;51.592;7.180;2023-05-27T12:50:40;31.40;97.50
37956;DHT22;23776;51.592;7.180;2023-05-27T12:53:07;31.90;96.60
37956;DHT22;23776;51.592;7.180;2023-05-27T12:55:33;32.90;91.30
37956;DHT22;23776;51.592;7.180;2023-05-27T12:57:59;32.90;95.50
37956;DHT22;23776;51.592;7.180;2023-05-27T13:00:24;33.40;94.50
37956;DHT22;23776;51.592;7.180;2023-05-27T13:02:50;34.00;93.60
37956;DHT22;23776;51.592;7.180;2023-05-27T13:05:16;34.40;92.90
37956;DHT22;23776;51.592;7.180;2023-05-27T13:07:53;34.60;91.40
37956;DHT22;23776;51.592;7.180;2023-05-27T13:10:20;34.90;90.20
37956;DHT22;23776;51.592;7.180;2023-05-27T13:12:47;35.20;90.00
37956;DHT22;23776;51.592;7.180;2023-05-27T13:15:12;35.40;94.50
37956;DHT22;23776;51.592;7.180;2023-05-27T13:17:38;35.70;78.00
37956;DHT22;23776;51.592;7.180;2023-05-27T13:20:05;35.90;86.30
37956;DHT22;23776;51.592;7.180;2023-05-27T13:22:31;36.00;84.30
37956;DHT22;23776;51.592;7.180;2023-05-27T13:24:56;36.20;83.50
37956;DHT22;23776;51.592;7.180;2023-05-27T13:27:22;36.10;70.80
37956;DHT22;23776;51.592;7.180;2023-05-27T13:29:48;36.40;82.40
37956;DHT22;23776;51.592;7.180;2023-05-27T13:32:13;36.50;80.50
37956;DHT22;23776;51.592;7.180;2023-05-27T13:34:39;36.60;79.40
37956;DHT22;23776;51.592;7.180;2023-05-27T13:37:05;36.50;66.80
37956;DHT22;23776;51.592;7.180;2023-05-27T13:39:31;36.70;78.90
37956;DHT22;23776;51.592;7.180;2023-05-27T13:41:57;36.90;76.90
37956;DHT22;23776;51.592;7.180;2023-05-27T13:44:24;37.00;76.70
37956;DHT22;23776;51.592;7.180;2023-05-27T13:46:50;37.10;65.10
37956;DHT22;23776;51.592;7.180;2023-05-27T13:49:16;36.90;75.10
37956;DHT22;23776;51.592;7.180;2023-05-27T13:51:45;37.00;73.70
37956;DHT22;23776;51.592;7.180;2023-05-27T13:54:12;37.00;73.60
37956;DHT22;23776;51.592;7.180;2023-05-27T13:56:38;37.00;62.40
37956;DHT22;23776;51.592;7.180;2023-05-27T13:59:04;36.90;72.30
37956;DHT22;23776;51.592;7.180;2023-05-27T14:01:31;36.70;69.80
37956;DHT22;23776;51.592;7.180;2023-05-27T14:03:57;36.70;70.70
37956;DHT22;23776;51.592;7.180;2023-05-27T14:06:22;37.00;60.50
37956;DHT22;23776;51.592;7.180;2023-05-27T14:08:48;37.10;70.10
37956;DHT22;23776;51.592;7.180;2023-05-27T14:11:14;37.00;68.50
37956;DHT22;23776;51.592;7.180;2023-05-27T14:13:40;37.10;69.80
37956;DHT22;23776;51.592;7.180;2023-05-27T14:16:06;37.40;58.80
37956;DHT22;23776;51.592;7.180;2023-05-27T14:18:32;37.50;70.00
37956;DHT22;23776;51.592;7.180;2023-05-27T14:20:57;37.70;69.60
37956;DHT22;23776;51.592;7.180;2023-05-27T14:23:23;37.40;66.90
37956;DHT22;23776;51.592;7.180;2023-05-27T14:25:48;37.50;57.80
37956;DHT22;23776;51.592;7.180;2023-05-27T14:28:14;37.50;67.90
37956;DHT22;23776;51.592;7.180;2023-05-27T14:30:40;37.70;69.20
37956;DHT22;23776;51.592;7.180;2023-05-27T14:33:06;37.80;67.90
37956;DHT22;23776;51.592;7.180;2023-05-27T14:35:35;37.60;56.10
37956;DHT22;23776;51.592;7.180;2023-05-27T14:38:02;37.60;65.60
37956;DHT22;23776;51.592;7.180;2023-05-27T14:40:28;37.30;64.00
37956;DHT22;23776;51.592;7.180;2023-05-27T14:42:54;37.30;65.10
37956;DHT22;23776;51.592;7.180;2023-05-27T14:45:20;37.20;53.50
37956;DHT22;23776;51.592;7.180;2023-05-27T14:47:48;37.10;63.00
37956;DHT22;23776;51.592;7.180;2023-05-27T14:50:15;37.10;62.70
37956;DHT22;23776;51.592;7.180;2023-05-27T14:52:41;37.00;62.50
37956;DHT22;23776;51.592;7.180;2023-05-27T14:55:07;36.80;60.50
37956;DHT22;23776;51.592;7.180;2023-05-27T14:57:33;36.70;51.60
37956;DHT22;23776;51.592;7.180;2023-05-27T15:00:03;36.70;61.00
37956;DHT22;23776;51.592;7.180;2023-05-27T15:02:31;36.80;51.60
37956;DHT22;23776;51.592;7.180;2023-05-27T15:04:56;37.10;61.40
37956;DHT22;23776;51.592;7.180;2023-05-27T15:07:22;37.10;50.20
37956;DHT22;23776;51.592;7.180;2023-05-27T15:09:48;36.90;59.80
37956;DHT22;23776;51.592;7.180;2023-05-27T15:12:14;37.00;49.70
37956;DHT22;23776;51.592;7.180;2023-05-27T15:14:40;37.00;59.10
37956;DHT22;23776;51.592;7.180;2023-05-27T15:17:06;37.40;50.40
37956;DHT22;23776;51.592;7.180;2023-05-27T15:19:38;37.40;59.60
37956;DHT22;23776;51.592;7.180;2023-05-27T15:22:05;37.10;58.20
37956;DHT22;23776;51.592;7.180;2023-05-27T15:24:34;37.40;59.10
37956;DHT22;23776;51.592;7.180;2023-05-27T15:27:00;37.50;49.70
37956;DHT22;23776;51.592;7.180;2023-05-27T15:29:27;37.50;59.00
37956;DHT22;23776;51.592;7.180;2023-05-27T15:31:53;37.60;59.50
37956;DHT22;23776;51.592;7.180;2023-05-27T15:34:19;37.50;57.60